Восточный

Карта отелей и гостиниц, располагающихся рядом с аэропортом Восточный :

Восточный
Курск
Курская область 51° 45' 1.98" N, 36° 17' 44.7612" E
Код аэродрома ИКАО
UUOK
Код аэродрома RU
УУОК
Координаты
N51.75055° E036.29577°
Превышение над уровнем моря
206
Основная полоса
12/30
Курс магнитный
116/296
Длина основной ВПП
2500
Ширина основной ВПП
40
Покрытие основной ВПП
Твёрдое (бетон)
Освещение ВПП
Постоянное
Тип: 
Аэродром
Класс аэродрома: 
Международный
Принадлежность: 
МО
Статус: 
Действующий
Страна: 
Россия
Регион: 
Курская область
Город: 
Курск
Дополнительная информация: 
Оператор: ВКС России. Совместного использования (МОРФ и ФАВТ). ГВПП (1800x85м) в рабочем состоянии не поддерживается. Нкр.=(400)м. ВПП-06/24 построена во время ВОВ немцами, по назначению не используется. Военный индекс: XUOK / ЬУОК.
Погода: 

Авиационная погода в Курске

Погода METAR: 
UUOK 241700Z 33006MPS CAVOK 05/M03 Q1023 R30/CLRD65 NOSIG RMK QFE748/0998
Время наблюдения
2021-10-24T17:00:00Z
Температура C
5.0
Точка росы
-3.0
Направление ветра
330
Скорость ветра (узлы)
12
Метео видимость
6.21
Явления погоды
Условия полета
VFR
Аэропорт подробнее: 

Найти трансфер

С помощью этой формы Вы можете найти трансфер из аэропорта Восточный в город, аэропорт или вокзал:

Карта места

Javascript is required to view this map.

Погода в аэропортах:

Авиационная погода в аэропорту Байкал

Регион: 
Погода METAR: 
UIUU 241700Z 00000MPS 4600 FU FEW043 M03/M04 Q1019 R26/CLRD60 NOSIG RMK QFE720/0960
Время наблюдения
2021-10-24T17:00:00Z
Температура C
-3.0
Точка росы
-4.0
Направление ветра
0
Скорость ветра (узлы)
0
Метео видимость
2.86
Явления погоды
FU
Условия полета
IFR
Аэропорт подробнее: 

Авиационная погода в аэропорту Алыкель

Регион: 
Погода METAR: 
UOOO 241700Z 06003MPS 3100 -SN SCT012 M03/M03 Q0987 R01/491048 NOSIG RMK QFE726/0968
Время наблюдения
2021-10-24T17:00:00Z
Температура C
-3.0
Точка росы
-3.0
Направление ветра
60
Скорость ветра (узлы)
6
Метео видимость
1.93
Явления погоды
-SN
Условия полета
IFR
Аэропорт подробнее: 

Авиационная погода в Якутске

Регион: 
Погода METAR: 
UEEE 241700Z 22002MPS 9999 -SHSN SCT040CB 00/M01 Q1003 R23L/150156 NOSIG RMK QFE743
Время наблюдения
2021-10-24T17:00:00Z
Температура C
0.0
Точка росы
-1.0
Направление ветра
220
Скорость ветра (узлы)
4
Метео видимость
6.21
Явления погоды
-SHSN
Условия полета
VFR
Аэропорт подробнее: 

Авиационная погода в Мирном

Регион: 
Погода METAR: 
UERR 241700Z 21003MPS 9999 -SHSN FEW009 OVC020CB M00/M01 Q0997 R25/591032 NOSIG RMK QFE717/0956
Время наблюдения
2021-10-24T17:00:00Z
Температура C
0.0
Точка росы
-1.0
Направление ветра
210
Скорость ветра (узлы)
6
Метео видимость
6.21
Явления погоды
-SHSN
Условия полета
MVFR
Аэропорт подробнее: